Pep, Texas
Current Conditions -  °F | °C
As of 9:59 AM on Saturday 22 Nov 2014 (Local Time) from KLBB Reporting Station
Haze Haze  
Wind Chill: 47°   Ceiling: 3300
Heat Index: 49°   Visibility: 6mi
Dew Point: 44°   Wind: 6mph
Humidity: 83%   Direction: 260°W
Pressure: 29.97"   Gusts: NA
Location:  33.81°N, 102.56°W
Report Text: KLBB 221559Z 26005KT 6SM BR FEW009 SCT016 BKN033 09/07 A2997 RMK AO2 OCNL LTG DSNT SE CB DSNT SE MOV NE T00940067
Loading
Personal Weather Stations






























Interactive Weather Map New forecast layout! Learn more

10-Day Weather Forecast

Advertisements
Track Severe Weather on mobile